Have a Safe July 4th! 

Flight Track Log - Related Links

Times and Time Zones

All times are in EDT time to prevent confusion due to time zone crossing. See the UAL252 flight status page for this flight to view local times or setup timezone preferences in your user account.

Time Position Orientation Groundspeed Altitude Reporting Facility
EDT Latitude Longitude Course Direction KTS MPH feet Rate Location/Type
Fri 06:09:50 PM 39.1500 -76.6500 256° West 158 182 1,300  Level Potomac TRACON
Fri 06:10:50 PM 39.1167 -76.6667 201° Southwest 213 245 2,500 1,900 Climbing Potomac TRACON
Fri 06:11:50 PM 39.1500 -76.7333 303° West 245 282 5,100 2,765 Climbing Potomac TRACON
Fri 06:12:00 PM 39.2000 -77.0835 270° West  Level FlightAware Approximate
Fri 06:12:45 PM 39.2000 -76.8000 314° West 284 327 7,800  Level Potomac TRACON
Fri 06:13:00 PM 39.1511 -77.1918 211° Southwest  Level FlightAware Approximate
Fri 06:13:45 PM 39.2000 -76.9000 270° West 286 329 10,500  Level Potomac TRACON
Fri 06:14:00 PM 39.0568 -77.2651 211° Southwest  Level FlightAware Approximate
Fri 06:15:00 PM 38.9899 -77.3673 256° West  Level FlightAware Approximate
Fri 06:15:41 PM 39.1975 -77.1317 269° West 333 383 14,400  Level Washington Center
Fri 06:16:42 PM 39.1400 -77.2267 232° Southwest 328 377 16,700 1,983 Climbing Washington Center
Fri 06:17:42 PM 39.1047 -77.3542 250° West 353 406 18,400 1,785 Climbing Washington Center
Fri 06:18:43 PM 39.0694 -77.4792 250° West 369 425 20,300 1,780 Climbing Washington Center
Fri 06:19:40 PM 39.0319 -77.6092 250° West 391 450 21,900 1,525 Climbing Washington Center
Fri 06:20:41 PM 38.9944 -77.7336 249° West 407 468 23,300 1,438 Climbing Washington Center
Fri 06:21:41 PM 38.9542 -77.8792 250° West 422 486 24,800 1,339 Climbing Washington Center
Fri 06:22:42 PM 38.9119 -78.0194 249° West 430 495 26,000 1,100 Climbing Washington Center
Fri 06:23:41 PM 38.8692 -78.1619 249° West 430 495 27,000 500 Climbing Washington Center
Fri 06:24:42 PM 38.8533 -78.3186 263° West 435 501 27,000 151 Level Washington Center
Fri 06:25:40 PM 38.8517 -78.4786 269° West 446 513 27,300 706 Climbing Washington Center
Fri 06:26:41 PM 38.8497 -78.6411 269° West 446 513 28,400 942 Climbing Washington Center
Fri 06:27:41 PM 38.8475 -78.8061 269° West 462 532 29,200 793 Climbing Washington Center
Fri 06:28:42 PM 38.8408 -78.9764 267° West 469 540 30,000 992 Climbing Washington Center
Fri 06:29:42 PM 38.8150 -79.1458 259° West 481 554 31,200 1,322 Climbing Washington Center
Fri 06:30:40 PM 38.7869 -79.3175 258° West 486 559 32,600 2,400 Climbing Washington Center
Fri 06:31:42 PM 38.7586 -79.4867 258° West 486 559 36,000 1,033 Climbing Washington Center
Fri 06:32:42 PM 38.7300 -79.6556 258° West 486 559 34,700  Descending Washington Center
Fri 06:33:40 PM 38.7008 -79.8400 259° West 486 559 36,000 783 Climbing Washington Center
Fri 06:34:14 PM 38.6814 -79.9194 253° West 485 558 35,900  Descending Indianapolis Center
Fri 06:35:16 PM 38.6528 -80.0842 258° West 477 549 36,000 48 Climbing Indianapolis Center
Fri 06:36:18 PM 38.6253 -80.2511 258° West 477 549 36,000  Level Indianapolis Center
Fri 06:37:21 PM 38.5964 -80.4156 257° West 475 547 36,000  Level Indianapolis Center
Fri 06:38:23 PM 38.5594 -80.6192 257° West 486 559 36,000  Level Indianapolis Center
Fri 06:39:25 PM 38.5308 -80.7869 258° West 482 555 36,000  Level Indianapolis Center
Fri 06:40:27 PM 38.4994 -80.9550 257° West 484 557 36,000  Level Indianapolis Center
Fri 06:41:29 PM 38.4692 -81.1242 257° West 487 560 36,000  Level Indianapolis Center
Fri 06:42:31 PM 38.4386 -81.2936 257° West 486 559 36,000  Level Indianapolis Center
Fri 06:43:33 PM 38.4067 -81.4639 257° West 483 556 36,000  Level Indianapolis Center
Fri 06:44:35 PM 38.3750 -81.6319 257° West 485 558 36,000  Level Indianapolis Center
Fri 06:45:37 PM 38.3369 -81.7964 254° West 485 558 36,000  Level Indianapolis Center
Fri 06:46:39 PM 38.2750 -81.9478 243° Southwest 482 555 36,000  Level Indianapolis Center
Fri 06:47:41 PM 38.2003 -82.1283 242° Southwest 481 554 36,000  Level Indianapolis Center
Fri 06:48:43 PM 38.1358 -82.2781 241° Southwest 482 555 36,000  Level Indianapolis Center
Fri 06:49:45 PM 38.0775 -82.4172 242° Southwest 479 551 36,000  Level Indianapolis Center
Fri 06:50:47 PM 38.0025 -82.5908 241° Southwest 482 555 36,000  Level Indianapolis Center
Fri 06:51:49 PM 37.9392 -82.7394 242° Southwest 483 556 36,000  Level Indianapolis Center
Fri 06:52:51 PM 37.8761 -82.8878 242° Southwest 480 552 36,000  Level Indianapolis Center
Fri 06:53:53 PM 37.8111 -83.0356 241° Southwest 483 556 36,000  Level Indianapolis Center
Fri 06:54:55 PM 37.7378 -83.2072 242° Southwest 480 552 36,000  Level Indianapolis Center
Fri 06:55:57 PM 37.6725 -83.3547 241° Southwest 483 556 36,000  Level Indianapolis Center
Fri 06:56:59 PM 37.6083 -83.5019 241° Southwest 483 556 36,000  Level Indianapolis Center
Fri 06:58:01 PM 37.5436 -83.6483 241° Southwest 481 554 36,000  Level Indianapolis Center
Fri 06:59:03 PM 37.4781 -83.7928 240° Southwest 478 550 36,000  Level Indianapolis Center
Fri 07:00:05 PM 37.4042 -83.9611 241° Southwest 475 547 36,000  Level Indianapolis Center
Fri 07:01:08 PM 37.3386 -84.1067 241° Southwest 479 551 36,000  Level Indianapolis Center
Fri 07:02:10 PM 37.2733 -84.2517 241° Southwest 477 549 36,000  Level Indianapolis Center
Fri 07:03:12 PM 37.2075 -84.3964 240° Southwest 479 551 36,000  Level Indianapolis Center
Fri 07:04:14 PM 37.1319 -84.5664 241° Southwest 481 554 36,000  Level Indianapolis Center
Fri 07:05:16 PM 37.0650 -84.7119 240° Southwest 483 556 36,000  Level Indianapolis Center
Fri 07:06:18 PM 37.0033 -84.8461 240° Southwest 477 549 36,000  Level Indianapolis Center
Fri 07:07:20 PM 36.9364 -84.9917 240° Southwest 481 554 36,000  Level Indianapolis Center
Fri 07:08:22 PM 36.8569 -85.1633 240° Southwest 479 551 36,000  Level Indianapolis Center
Fri 07:09:24 PM 36.7897 -85.3078 240° Southwest 482 555 36,000  Level Indianapolis Center
Fri 07:10:26 PM 36.7233 -85.4508 240° Southwest 479 551 36,000  Level Indianapolis Center
Fri 07:11:28 PM 36.6564 -85.5939 240° Southwest 480 552 36,000  Level Indianapolis Center
Fri 07:12:30 PM 36.5883 -85.7386 240° Southwest 485 558 36,000  Level Indianapolis Center
Fri 07:13:32 PM 36.5117 -85.8997 239° Southwest 486 559 36,000  Level Indianapolis Center
Fri 07:14:34 PM 36.4433 -86.0428 239° Southwest 479 551 36,000  Level Indianapolis Center
Fri 07:15:36 PM 36.3758 -86.1864 240° Southwest 477 549 36,000  Level Indianapolis Center
Fri 07:16:38 PM 36.3072 -86.3286 239° Southwest 475 547 36,000 -49 Level Indianapolis Center
Fri 07:17:39 PM 36.2386 -86.4700 239° Southwest 472 543 35,900  Descending Indianapolis Center
Fri 07:18:43 PM 36.1647 -86.6164 238° Southwest 484 557 36,000 48 Climbing Memphis Center
Fri 07:19:43 PM 36.0872 -86.7483 234° Southwest 484 557 36,000  Level Memphis Center
Fri 07:20:43 PM 36.0031 -86.8700 229° Southwest 479 551 36,000  Level Memphis Center
Fri 07:21:43 PM 35.9147 -86.9917 228° Southwest 474 545 36,000  Level Memphis Center
Fri 07:22:43 PM 35.8203 -87.1236 229° Southwest 474 545 36,000  Level Memphis Center
Fri 07:23:43 PM 35.7378 -87.2419 229° Southwest 474 545 36,000  Level Memphis Center
Fri 07:24:43 PM 35.6511 -87.3603 228° Southwest 474 545 36,000  Level Memphis Center
Fri 07:25:43 PM 35.5642 -87.4781 228° Southwest 469 540 36,000  Level Memphis Center
Fri 07:26:43 PM 35.4814 -87.5933 229° Southwest 469 540 36,000 -50 Level Memphis Center
Fri 07:27:43 PM 35.3983 -87.7081 228° Southwest 469 540 35,900  Descending Memphis Center
Fri 07:28:43 PM 35.3256 -87.8172 231° Southwest 459 528 36,000 50 Climbing Memphis Center
Fri 07:29:43 PM 35.2422 -87.9367 230° Southwest 464 534 36,000  Level Memphis Center
Fri 07:30:43 PM 35.1569 -88.0511 228° Southwest 464 534 36,000  Level Memphis Center
Fri 07:31:43 PM 35.0692 -88.1600 225° Southwest 457 526 36,000  Level Memphis Center
Fri 07:32:43 PM 34.9878 -88.2761 229° Southwest 457 526 36,000 -50 Level Memphis Center
Fri 07:33:43 PM 34.9042 -88.3922 229° Southwest 457 526 35,900  Descending Memphis Center
Fri 07:34:43 PM 34.8119 -88.5081 226° Southwest 452 520 36,000 50 Climbing Memphis Center
Fri 07:35:43 PM 34.7261 -88.6211 227° Southwest 444 511 36,000  Level Memphis Center
Fri 07:36:43 PM 34.6419 -88.7364 228° Southwest 444 511 36,000  Level Memphis Center
Fri 07:37:43 PM 34.5578 -88.8467 227° Southwest 454 522 36,000  Level Memphis Center
Fri 07:38:43 PM 34.4736 -88.9564 227° Southwest 445 512 36,000  Level Memphis Center
Fri 07:39:43 PM 34.3872 -89.0711 228° Southwest 452 520 36,000  Level Memphis Center
Fri 07:40:43 PM 34.2986 -89.1856 227° Southwest 452 520 36,000  Level Memphis Center
Fri 07:41:43 PM 34.2244 -89.2844 228° Southwest 452 520 36,000  Level Memphis Center
Fri 07:42:43 PM 34.1397 -89.3961 228° Southwest 452 520 36,000  Level Memphis Center
Fri 07:43:43 PM 34.0569 -89.5072 228° Southwest 452 520 36,000  Level Memphis Center
Fri 07:44:43 PM 33.9722 -89.6158 227° Southwest 447 514 36,000  Level Memphis Center
Fri 07:45:43 PM 33.8811 -89.7367 228° Southwest 447 514 36,000  Level Memphis Center
Fri 07:46:43 PM 33.8083 -89.8372 229° Southwest 442 509 36,000  Level Memphis Center
Fri 07:47:43 PM 33.7253 -89.9450 227° Southwest 442 509 36,000  Level Memphis Center
Fri 07:48:43 PM 33.6422 -90.0528 227° Southwest 442 509 36,000  Level Memphis Center
Fri 07:49:43 PM 33.5569 -90.1603 226° Southwest 442 509 36,000  Level Memphis Center
Fri 07:50:43 PM 33.4525 -90.2675 221° Southwest 448 516 36,000  Level Memphis Center
Fri 07:51:43 PM 33.3586 -90.3647 221° Southwest 448 516 36,000  Level Memphis Center
Fri 07:52:43 PM 33.2669 -90.4592 221° Southwest 448 516 36,000  Level Memphis Center
Fri 07:53:43 PM 33.1728 -90.5608 222° Southwest 453 521 36,000  Level Memphis Center
Fri 07:54:43 PM 33.0786 -90.6597 221° Southwest 453 521 36,000  Level Memphis Center
Fri 07:55:43 PM 32.9844 -90.7536 220° Southwest 453 521 36,000  Level Memphis Center
Fri 07:56:43 PM 32.8903 -90.8497 221° Southwest 453 521 36,000  Level Memphis Center
Fri 07:57:43 PM 32.8000 -90.9456 222° Southwest 453 521 36,000  Level Memphis Center
Fri 07:58:43 PM 32.7056 -91.0411 220° Southwest 453 521 36,000  Level Memphis Center
Fri 07:59:43 PM 32.6131 -91.1367 221° Southwest 447 514 36,000  Level Memphis Center
Fri 08:00:43 PM 32.5269 -91.2247 221° Southwest 447 514 36,000  Level Memphis Center
Fri 08:02:20 PM 32.3825 -91.3742 221° Southwest 439 505 36,000  Level Houston Center
Fri 08:03:22 PM 32.2889 -91.4694 221° Southwest 443 510 36,000  Level Houston Center
Fri 08:04:23 PM 32.2028 -91.5703 225° Southwest 438 504 36,000 -293 Level Houston Center
Fri 08:05:25 PM 32.1339 -91.6869 235° Southwest 432 497 35,400 -1,161 Descending Houston Center
Fri 08:06:27 PM 32.0483 -91.8264 234° Southwest 436 502 33,600 -1,597 Descending Houston Center
Fri 08:07:29 PM 31.9758 -91.9436 234° Southwest 441 507 32,100 -829 Descending Houston Center
Fri 08:08:30 PM 31.8953 -92.0731 234° Southwest 454 522 31,900 -98 Descending Houston Center
Fri 08:09:32 PM 31.8217 -92.1953 235° Southwest 460 529 31,900  Level Houston Center
Fri 08:10:34 PM 31.7500 -92.3172 235° Southwest 456 525 31,900  Level Houston Center
Fri 08:11:36 PM 31.6833 -92.4408 238° Southwest 449 517 31,900  Level Houston Center
Fri 08:12:37 PM 31.6175 -92.5631 238° Southwest 443 510 31,900  Level Houston Center
Fri 08:13:39 PM 31.5475 -92.6828 236° Southwest 446 513 31,900 48 Level Houston Center
Fri 08:14:41 PM 31.4831 -92.8083 239° Southwest 453 521 32,000  Climbing Houston Center
Fri 08:15:43 PM 31.3853 -92.9406 229° Southwest 450 518 31,900 -48 Descending Houston Center
Fri 08:16:45 PM 31.2944 -93.0389 223° Southwest 447 514 31,900 -244 Level Houston Center
Fri 08:17:46 PM 31.2028 -93.1356 222° Southwest 447 514 31,400 -732 Descending Houston Center
Fri 08:18:48 PM 31.1094 -93.2325 222° Southwest 449 517 30,400 -1,113 Descending Houston Center
Fri 08:19:50 PM 31.0144 -93.3258 220° Southwest 450 518 29,100 -1,548 Descending Houston Center
Fri 08:20:52 PM 30.9211 -93.4211 221° Southwest 449 517 27,200 -2,098 Descending Houston Center
Fri 08:21:53 PM 30.8217 -93.5419 226° Southwest 433 498 24,800 -2,244 Descending Houston Center
Fri 08:22:55 PM 30.7456 -93.6428 229° Southwest 421 484 22,600 -2,081 Descending Houston Center
Fri 08:23:57 PM 30.6711 -93.7408 229° Southwest 411 473 20,500 -1,839 Descending Houston Center
Fri 08:24:59 PM 30.5986 -93.8383 229° Southwest 405 466 18,800 -1,548 Descending Houston Center
Fri 08:26:01 PM 30.5264 -93.9344 229° Southwest 400 460 17,300 -1,707 Descending Houston Center
Fri 08:27:02 PM 30.4422 -94.0453 229° Southwest 388 447 15,300 -1,789 Descending Houston Center
Fri 08:27:55 PM 30.3842 -94.1194 228° Southwest 365 420 13,900 -1,548 Descending Houston Center
Fri 08:29:06 PM 30.3100 -94.2158 228° Southwest 356 410 12,100 -891 Descending Houston Center
Fri 08:30:03 PM 30.2428 -94.3031 228° Southwest 357 411 12,000 -54 Descending Houston Center
Fri 08:30:58 PM 30.1900 -94.3872 234° Southwest 356 410 12,000 -393 Level Houston Center
Fri 08:32:05 PM 30.1725 -94.5081 261° West 344 396 11,200 -837 Descending Houston Center
Fri 08:33:07 PM 30.1519 -94.6219 258° West 346 398 10,200 -585 Descending Houston Center
Fri 08:34:08 PM 30.1331 -94.7308 259° West 340 391 10,000 -98 Descending Houston Center
Fri 08:35:09 PM 30.1161 -94.8369 260° West 341 392 10,000 -259 Level Houston Center
Fri 08:36:04 PM 30.1056 -94.9253 262° West 290 334 9,500 -787 Descending Houston Center
Fri 08:37:11 PM 30.1044 -95.0267 269° West 296 341 8,400 -913 Descending Houston Center
Fri 08:38:22 PM 30.1064 -95.1239 271° West 289 333 7,400 -984 Descending Houston Center
Fri 08:39:13 PM 30.1056 -95.2175 269° West 280 322 6,400 -792 Descending Houston Center
Fri 08:40:08 PM 30.1061 -95.2922 271° West 243 280 6,000 -639 Descending Houston Center
Fri 08:41:15 PM 30.1056 -95.3769 270° West 239 275 5,100 -878 Descending Houston Center
Fri 08:42:11 PM 30.1050 -95.4422 269° West 234 269 4,200 -787 Descending Houston Center
Fri 08:43:17 PM 30.0492 -95.4731 206° Southwest 203 234 3,500 -1,039 Descending Houston Center
Fri 08:44:18 PM 30.0208 -95.4378 133° Southeast 160 184 2,000 -1,475 Descending Houston Center

Login

Don't have an account? Register now (free) for customized features, flight alerts, and more!